Terminal Aerodrome Forecast
Issued by NWS

Home | Current Version | Previous Version | Text Only | Print | Product List | Glossary On
Versions: 1 2 3 4 5 6 7 8 9 10 11 12 13 14 15 16 17 18 19 20 21 22
873
FTUS44 KTSA 240823 AAA
TAFFYV
TAF AMD
KFYV 240823Z 2408/2506 09007KT 5SM -RA BR VCTS SCT007 BKN018CB
      TEMPO 2408/2410 2SM -RA BR BKN007
     FM241000 18005KT 5SM -RA BR OVC003
     FM241300 VRB03KT 4SM BR OVC003
     FM241600 15006KT 3SM -RA BKN005
      TEMPO 2417/2421 VRB15G25KT 2SM -TSRA BR BKN015CB
     FM242300 24012G22KT P6SM OVC015
     FM250400 28015KT P6SM BKN250=

USA.gov is the U.S. government's official web portal to all federal, state and local government web resources and services.